Time;durP1;ratioP1;P1;durP2;ratioP2;P2;SDS_P1;SDS_P2;PMS_P1;PMS_P2;Temp;Humidity;BMP_temperature;BMP_pressure;BME280_temperature;BME280_humidity;BME280_pressure;Samples;Min_cycle;Max_cycle;Signal;HPM_P1;HPM_P2
2023/04/22 00:00:28;;;;;;;5.20;3.20;;;9.30;81.10;;;;;;4998983;28;20226;-75
2023/04/22 00:02:55;;;;;;;4.93;3.07;;;9.20;81.20;;;;;;4999405;28;20222;-75
2023/04/22 00:05:22;;;;;;;4.33;2.90;;;9.20;81.50;;;;;;5000003;28;20225;-75
2023/04/22 00:07:50;;;;;;;5.77;3.30;;;9.20;81.40;;;;;;4998391;28;20303;-75
2023/04/22 00:10:19;;;;;;;5.87;3.27;;;9.10;81.80;;;;;;4990717;28;20257;-75
2023/04/22 00:12:46;;;;;;;4.13;2.83;;;9.20;82.00;;;;;;4998215;28;20232;-76
2023/04/22 00:15:12;;;;;;;5.47;3.10;;;9.10;82.00;;;;;;4997794;28;20732;-75
2023/04/22 00:17:41;;;;;;;6.47;3.30;;;9.10;82.00;;;;;;4998742;28;20221;-76
2023/04/22 00:20:10;;;;;;;5.67;3.17;;;9.10;82.10;;;;;;4998516;28;20225;-76
2023/04/22 00:22:37;;;;;;;3.43;2.83;;;9.10;82.10;;;;;;4998248;28;20743;-76
2023/04/22 00:25:06;;;;;;;4.27;3.03;;;9.10;82.20;;;;;;5011652;28;20273;-76
2023/04/22 00:27:33;;;;;;;3.97;3.20;;;9.00;82.50;;;;;;4993529;28;21878;-75
2023/04/22 00:30:00;;;;;;;4.03;3.00;;;9.00;82.40;;;;;;4997184;28;20237;-75
2023/04/22 00:32:27;;;;;;;4.73;3.23;;;9.00;82.40;;;;;;4994896;28;20231;-75
2023/04/22 00:34:56;;;;;;;4.90;2.77;;;9.00;82.40;;;;;;4995308;28;20768;-75
2023/04/22 00:37:23;;;;;;;4.80;3.23;;;9.00;82.70;;;;;;4988473;28;20670;-75
2023/04/22 00:39:50;;;;;;;4.93;3.30;;;9.00;82.70;;;;;;4993037;28;20308;-75
2023/04/22 00:42:18;;;;;;;6.77;3.93;;;8.90;82.80;;;;;;4992318;28;20245;-75
2023/04/22 00:44:48;;;;;;;4.63;3.20;;;8.90;83.10;;;;;;4992665;28;20638;-75
2023/04/22 00:47:16;;;;;;;4.53;2.97;;;8.90;83.10;;;;;;4996834;28;20228;-75
2023/04/22 00:49:43;;;;;;;6.40;3.60;;;8.80;83.10;;;;;;4996833;28;20984;-76
2023/04/22 00:52:10;;;;;;;4.90;3.30;;;8.80;82.90;;;;;;4992864;28;20233;-76
2023/04/22 00:54:37;;;;;;;4.83;3.30;;;8.80;83.40;;;;;;4998465;28;20216;-77
2023/04/22 00:57:05;;;;;;;5.83;3.20;;;8.80;83.50;;;;;;4994865;28;20220;-76
2023/04/22 00:59:33;;;;;;;4.27;3.20;;;8.70;83.80;;;;;;4996407;28;20762;-76
2023/04/22 01:02:01;;;;;;;6.43;3.27;;;8.70;83.80;;;;;;4998192;28;20224;-76
2023/04/22 01:04:28;;;;;;;4.87;3.17;;;8.70;84.00;;;;;;4999876;28;20236;-76
2023/04/22 01:06:55;;;;;;;4.13;3.20;;;8.60;84.20;;;;;;4995085;28;20226;-76
2023/04/22 01:09:22;;;;;;;4.50;3.00;;;8.60;84.20;;;;;;4996178;28;20221;-76
2023/04/22 01:11:49;;;;;;;3.90;3.13;;;8.60;84.50;;;;;;4996028;28;20264;-76
2023/04/22 01:14:16;;;;;;;4.17;3.30;;;8.50;84.50;;;;;;4997195;28;20256;-75
2023/04/22 01:16:47;;;;;;;5.50;3.27;;;8.50;84.80;;;;;;4994835;28;20222;-75
2023/04/22 01:19:14;;;;;;;7.20;3.37;;;8.50;85.30;;;;;;4996528;28;20747;-76
2023/04/22 01:21:43;;;;;;;3.70;3.27;;;8.50;85.20;;;;;;5000193;28;20248;-75
2023/04/22 01:24:12;;;;;;;4.33;3.20;;;8.40;85.50;;;;;;4997856;28;20726;-76
2023/04/22 01:26:39;;;;;;;7.53;3.47;;;8.40;85.80;;;;;;4993843;28;20750;-76
2023/04/22 01:29:06;;;;;;;4.97;3.60;;;8.40;85.70;;;;;;4999861;28;20265;-76
2023/04/22 01:31:33;;;;;;;4.90;3.23;;;8.40;85.80;;;;;;4998611;28;20228;-76
2023/04/22 01:34:00;;;;;;;5.50;3.80;;;8.30;85.90;;;;;;5000073;28;20228;-76
2023/04/22 01:36:27;;;;;;;7.33;3.80;;;8.30;86.20;;;;;;4994800;28;20231;-76
2023/04/22 01:38:54;;;;;;;9.47;3.50;;;8.30;86.20;;;;;;4996935;28;20266;-77
2023/04/22 01:41:23;;;;;;;4.47;3.50;;;8.30;86.50;;;;;;5002397;28;20223;-76
2023/04/22 01:43:51;;;;;;;5.40;3.73;;;8.20;86.80;;;;;;4994497;28;20233;-76
2023/04/22 01:46:17;;;;;;;6.83;3.80;;;8.20;86.90;;;;;;4997859;28;20221;-76
2023/04/22 01:48:49;;;;;;;5.10;3.77;;;8.20;87.50;;;;;;4997035;28;20228;-76
2023/04/22 01:51:16;;;;;;;5.10;3.47;;;8.10;87.60;;;;;;4993161;28;20313;-75
2023/04/22 01:53:44;;;;;;;5.40;3.73;;;8.10;87.80;;;;;;4994617;28;20233;-76
2023/04/22 01:56:11;;;;;;;5.70;3.43;;;8.10;88.10;;;;;;4994491;28;20315;-76
2023/04/22 01:58:40;;;;;;;5.37;3.60;;;8.10;88.50;;;;;;4993083;28;20764;-76
2023/04/22 02:01:10;;;;;;;6.60;3.90;;;8.10;88.90;;;;;;4992515;28;21115;-76
2023/04/22 02:03:38;;;;;;;4.83;4.20;;;8.10;89.00;;;;;;5002424;28;20239;-76
2023/04/22 02:06:06;;;;;;;6.83;3.50;;;8.00;88.90;;;;;;4999970;28;20746;-76
2023/04/22 02:08:33;;;;;;;5.00;3.57;;;8.00;89.30;;;;;;4998469;28;20682;-76
2023/04/22 02:11:00;;;;;;;4.93;3.80;;;8.00;89.70;;;;;;5000927;28;20220;-77
2023/04/22 02:13:27;;;;;;;5.07;3.60;;;8.00;89.80;;;;;;5000193;28;20228;-76
2023/04/22 02:15:55;;;;;;;5.17;3.77;;;8.00;90.00;;;;;;4999550;28;20248;-75
2023/04/22 02:18:21;;;;;;;4.97;4.03;;;7.90;90.10;;;;;;4997220;28;20823;-76
2023/04/22 02:20:48;;;;;;;5.73;3.57;;;8.00;90.20;;;;;;4994669;28;20243;-76
2023/04/22 02:23:16;;;;;;;5.13;4.13;;;8.00;90.20;;;;;;4999720;28;20225;-76
2023/04/22 02:25:49;;;;;;;7.03;4.00;;;7.90;90.70;;;;;;4999490;28;20538;-76
2023/04/22 02:28:16;;;;;;;5.63;3.53;;;7.90;90.70;;;;;;5010146;28;20221;-75
2023/04/22 02:30:43;;;;;;;4.60;3.43;;;7.90;90.50;;;;;;4997130;28;20210;-76
2023/04/22 02:33:11;;;;;;;5.90;4.30;;;7.90;90.60;;;;;;4999597;28;20216;-76
2023/04/22 02:35:38;;;;;;;4.00;3.60;;;7.90;90.80;;;;;;4999202;28;20228;-76
2023/04/22 02:38:05;;;;;;;5.83;4.20;;;7.90;90.80;;;;;;4995669;28;21791;-76
2023/04/22 02:40:32;;;;;;;5.60;3.73;;;7.90;91.00;;;;;;4995744;28;20847;-76
2023/04/22 02:42:59;;;;;;;7.30;3.90;;;7.80;91.10;;;;;;5000072;28;20674;-75
2023/04/22 02:45:27;;;;;;;5.53;4.13;;;7.80;91.10;;;;;;4998793;28;20301;-75
2023/04/22 02:47:55;;;;;;;5.13;4.20;;;7.80;91.20;;;;;;4998738;28;20233;-75
2023/04/22 02:50:23;;;;;;;8.00;4.20;;;7.80;91.30;;;;;;4994175;28;20305;-75
2023/04/22 02:52:50;;;;;;;5.77;3.90;;;7.80;91.50;;;;;;5000445;28;20259;-76
2023/04/22 02:55:17;;;;;;;5.87;3.80;;;7.80;91.50;;;;;;4995898;28;20900;-76
2023/04/22 02:57:44;;;;;;;5.70;3.93;;;7.80;91.70;;;;;;4996650;28;20236;-76
2023/04/22 03:00:12;;;;;;;7.80;4.50;;;7.70;91.80;;;;;;4997105;28;20365;-76
2023/04/22 03:02:39;;;;;;;6.43;4.30;;;7.70;91.90;;;;;;4995918;28;20228;-76
2023/04/22 03:05:10;;;;;;;7.00;4.37;;;7.70;92.10;;;;;;5011868;28;20225;-76
2023/04/22 03:07:38;;;;;;;5.03;4.50;;;7.70;92.10;;;;;;4995312;28;20662;-75
2023/04/22 03:10:06;;;;;;;6.93;4.80;;;7.70;92.30;;;;;;4998121;28;20337;-75
2023/04/22 03:12:34;;;;;;;5.00;4.37;;;7.70;92.50;;;;;;4996085;28;20236;-75
2023/04/22 03:15:00;;;;;;;7.13;4.90;;;7.70;92.40;;;;;;4998210;28;20225;-76
2023/04/22 03:17:30;;;;;;;7.20;4.80;;;7.70;92.40;;;;;;4997330;28;20240;-76
2023/04/22 03:19:59;;;;;;;7.03;4.47;;;7.70;92.50;;;;;;4990714;28;20232;-77
2023/04/22 03:22:26;;;;;;;5.67;4.50;;;7.70;92.60;;;;;;4993397;28;20243;-76
2023/04/22 03:24:57;;;;;;;6.40;4.87;;;7.60;92.70;;;;;;4997743;28;20225;-76
2023/04/22 03:27:24;;;;;;;6.13;4.47;;;7.60;92.90;;;;;;4998533;28;20225;-76
2023/04/22 03:29:51;;;;;;;6.03;4.60;;;7.60;92.80;;;;;;4997690;28;20280;-76
2023/04/22 03:32:18;;;;;;;7.17;4.60;;;7.60;93.00;;;;;;4995001;28;20233;-76
2023/04/22 03:34:44;;;;;;;4.90;4.33;;;7.60;93.10;;;;;;4997678;28;20231;-77
2023/04/22 03:37:12;;;;;;;6.23;5.00;;;7.50;93.20;;;;;;4998092;28;20252;-76
2023/04/22 03:39:38;;;;;;;6.63;4.93;;;7.50;93.40;;;;;;4994399;28;20233;-76
2023/04/22 03:42:07;;;;;;;5.93;4.60;;;7.50;93.40;;;;;;4996103;28;20224;-76
2023/04/22 03:44:37;;;;;;;7.77;4.87;;;7.50;93.70;;;;;;4997656;28;20869;-76
2023/04/22 03:47:04;;;;;;;6.43;4.57;;;7.50;93.70;;;;;;4995391;28;20303;-76
2023/04/22 03:49:37;;;;;;;6.00;4.93;;;7.50;93.80;;;;;;4992058;28;20241;-76
2023/04/22 03:52:04;;;;;;;7.27;5.10;;;7.50;93.80;;;;;;4992417;28;20229;-76
2023/04/22 03:54:31;;;;;;;7.10;5.30;;;7.50;93.90;;;;;;4996973;28;20308;-75
2023/04/22 03:56:59;;;;;;;9.50;4.97;;;7.50;94.10;;;;;;5011233;28;20221;-75
2023/04/22 03:59:28;;;;;;;5.97;4.73;;;7.50;94.10;;;;;;4996446;28;20363;-75
2023/04/22 04:01:55;;;;;;;6.90;4.87;;;7.50;94.30;;;;;;4995114;28;20235;-76
2023/04/22 04:04:28;;;;;;;6.00;4.70;;;7.50;94.20;;;;;;4997024;28;20231;-75
2023/04/22 04:06:59;;;;;;;6.43;5.00;;;7.40;94.30;;;;;;4993469;28;20283;-75
2023/04/22 04:09:29;;;;;;;7.63;5.30;;;7.40;94.40;;;;;;4989851;28;20247;-80
2023/04/22 04:11:57;;;;;;;7.67;5.20;;;7.40;94.70;;;;;;5004525;28;20235;-80
2023/04/22 04:14:27;;;;;;;7.07;4.87;;;7.40;94.60;;;;;;4997320;28;20801;-77
2023/04/22 04:16:54;;;;;;;6.67;5.03;;;7.40;94.70;;;;;;5002701;28;20334;-79
2023/04/22 04:19:30;;;;;;;7.50;5.23;;;7.40;94.80;;;;;;4996640;28;20224;-79
2023/04/22 04:21:57;;;;;;;10.43;5.63;;;7.40;94.90;;;;;;5005096;28;20679;-79
2023/04/22 04:24:27;;;;;;;8.27;4.70;;;7.40;95.10;;;;;;5005347;28;20291;-79
2023/04/22 04:27:00;;;;;;;8.40;5.10;;;7.40;95.20;;;;;;5008774;28;20225;-78
2023/04/22 04:29:36;;;;;;;7.63;4.97;;;7.40;95.30;;;;;;5008267;28;20235;-79
2023/04/22 04:32:13;;;;;;;6.10;5.50;;;7.40;95.40;;;;;;5007449;28;20217;-81
2023/04/22 04:34:41;;;;;;;9.30;7.40;;;7.40;95.40;;;;;;5027468;28;20248;-79
2023/04/22 04:37:09;;;;;;;7.63;5.43;;;7.50;95.70;;;;;;5008461;28;20226;-79
2023/04/22 04:39:47;;;;;;;6.73;5.40;;;7.50;95.70;;;;;;5007286;28;20718;-78
2023/04/22 04:42:15;;;;;;;8.40;6.00;;;7.50;95.90;;;;;;5009060;28;20221;-80
2023/04/22 04:44:52;;;;;;;7.30;5.60;;;7.50;96.00;;;;;;5001356;28;20227;-79
2023/04/22 04:47:21;;;;;;;7.13;5.40;;;7.50;96.20;;;;;;5005963;28;20213;-78
2023/04/22 04:49:52;;;;;;;7.97;5.23;;;7.60;96.50;;;;;;5010030;28;20221;-79
2023/04/22 04:52:19;;;;;;;9.57;5.23;;;7.60;96.20;;;;;;5008621;28;20300;-79
2023/04/22 04:54:46;;;;;;;6.70;5.40;;;7.70;96.20;;;;;;5006579;28;20256;-79
2023/04/22 04:57:13;;;;;;;6.80;5.50;;;7.80;96.20;;;;;;5003146;28;20225;-79
2023/04/22 04:59:40;;;;;;;10.97;5.40;;;7.80;96.20;;;;;;5002092;28;20233;-78
2023/04/22 05:02:08;;;;;;;6.10;5.17;;;7.90;96.20;;;;;;5021155;28;20590;-79
2023/04/22 05:04:35;;;;;;;7.67;5.97;;;8.00;96.30;;;;;;5003008;28;20261;-79
2023/04/22 05:07:02;;;;;;;6.27;5.57;;;8.00;96.30;;;;;;5008641;28;21507;-82
2023/04/22 05:09:35;;;;;;;8.90;6.00;;;8.10;96.30;;;;;;5000563;28;20237;-84
2023/04/22 05:12:02;;;;;;;9.27;6.03;;;8.20;96.30;;;;;;5000259;28;20283;-83
2023/04/22 05:14:30;;;;;;;8.97;5.67;;;8.30;96.20;;;;;;5006611;28;20217;-81
2023/04/22 05:16:57;;;;;;;9.00;6.17;;;8.40;96.30;;;;;;5000896;28;20234;-81
2023/04/22 05:19:25;;;;;;;7.80;6.00;;;8.50;96.20;;;;;;5002284;28;20240;-85
2023/04/22 05:21:54;;;;;;;6.20;5.47;;;8.60;96.20;;;;;;5000682;28;20884;-81
2023/04/22 05:24:21;;;;;;;6.97;5.20;;;8.70;96.20;;;;;;4997612;28;20268;-83
2023/04/22 05:26:48;;;;;;;6.73;5.43;;;8.80;96.20;;;;;;4998993;28;20232;-83
2023/04/22 05:29:19;;;;;;;6.30;5.13;;;8.90;96.10;;;;;;4994278;28;20311;-83
2023/04/22 05:31:46;;;;;;;7.10;5.60;;;9.00;96.10;;;;;;4999972;28;20221;-81
2023/04/22 05:34:13;;;;;;;8.43;5.47;;;9.00;95.90;;;;;;5000282;28;20313;-83
2023/04/22 05:36:41;;;;;;;8.00;5.90;;;9.10;95.70;;;;;;5006868;28;20312;-81
2023/04/22 05:39:09;;;;;;;6.93;5.60;;;9.10;95.80;;;;;;5007024;28;20521;-80
2023/04/22 05:41:36;;;;;;;7.60;5.30;;;9.20;95.70;;;;;;5005901;28;20919;-82
2023/04/22 05:44:07;;;;;;;10.00;6.27;;;9.20;95.80;;;;;;5004632;28;20226;-84
2023/04/22 05:46:34;;;;;;;9.30;5.90;;;9.30;95.80;;;;;;5001725;28;20229;-82
2023/04/22 05:49:04;;;;;;;7.23;5.53;;;9.30;95.90;;;;;;5001675;28;20291;-82
2023/04/22 05:51:52;;;;;;;8.23;5.60;;;9.40;95.90;;;;;;5008017;28;20219;-82
2023/04/22 05:54:22;;;;;;;7.07;5.53;;;9.40;95.70;;;;;;5006693;28;20227;-81
2023/04/22 05:56:50;;;;;;;8.07;5.50;;;9.50;95.70;;;;;;5002347;28;20341;-82
2023/04/22 05:59:19;;;;;;;9.00;6.07;;;9.60;95.70;;;;;;5002221;28;20216;-81
2023/04/22 06:01:49;;;;;;;10.67;6.30;;;9.60;95.80;;;;;;4985032;28;20234;-90
2023/04/22 06:04:19;;;;;;;7.33;5.73;;;9.70;96.00;;;;;;5001565;28;20224;-83
2023/04/22 06:06:48;;;;;;;7.80;6.13;;;9.80;95.90;;;;;;5009776;28;20279;-83
2023/04/22 06:09:16;;;;;;;7.37;5.80;;;9.90;96.00;;;;;;5024308;28;20761;-81
2023/04/22 06:11:43;;;;;;;8.63;6.40;;;10.00;95.70;;;;;;5007844;28;20469;-83
2023/04/22 06:14:11;;;;;;;7.37;5.90;;;10.10;95.50;;;;;;4990352;28;20246;-82
2023/04/22 06:16:38;;;;;;;7.47;5.60;;;10.30;95.30;;;;;;5003378;28;20232;-83
2023/04/22 06:19:09;;;;;;;7.30;5.90;;;10.40;95.40;;;;;;5001689;28;20229;-82
2023/04/22 06:21:38;;;;;;;7.33;5.80;;;10.60;95.20;;;;;;5019204;28;20251;-80
2023/04/22 06:24:06;;;;;;;8.63;5.63;;;10.80;95.40;;;;;;5020861;28;20653;-82
2023/04/22 06:26:34;;;;;;;7.37;5.80;;;11.10;94.60;;;;;;5000460;28;20218;-83
2023/04/22 06:29:04;;;;;;;8.33;6.10;;;11.40;94.30;;;;;;4999477;28;20226;-84
2023/04/22 06:31:31;;;;;;;9.33;6.60;;;11.60;94.30;;;;;;5006724;28;20294;-83
2023/04/22 06:33:58;;;;;;;8.37;6.37;;;11.90;93.90;;;;;;5006429;28;20254;-84
2023/04/22 06:36:25;;;;;;;6.23;5.40;;;12.10;93.70;;;;;;5005298;28;20233;-82
2023/04/22 06:38:57;;;;;;;8.57;6.27;;;12.30;93.40;;;;;;5000700;28;20226;-82
2023/04/22 06:41:51;;;;;;;7.77;6.07;;;12.40;93.00;;;;;;4990615;28;20276;-84
2023/04/22 06:44:41;;;;;;;7.87;6.23;;;12.60;92.30;;;;;;4995115;28;20244;-83
2023/04/22 06:47:16;;;;;;;8.07;6.53;;;12.80;92.40;;;;;;5001300;28;20228;-82
2023/04/22 06:49:49;;;;;;;6.93;6.13;;;12.90;92.20;;;;;;5007551;28;20232;-84
2023/04/22 06:52:29;;;;;;;7.90;6.47;;;13.00;91.80;;;;;;5008917;28;20806;-83
2023/04/22 06:54:58;;;;;;;7.77;6.20;;;13.00;91.20;;;;;;5010025;28;20331;-82
2023/04/22 06:57:26;;;;;;;9.67;5.53;;;13.00;91.00;;;;;;5002494;28;20228;-82
2023/04/22 06:59:53;;;;;;;8.70;6.13;;;13.00;91.00;;;;;;5003199;28;20229;-86
2023/04/22 07:02:21;;;;;;;7.23;6.43;;;13.00;90.90;;;;;;5017997;28;20307;-83
2023/04/22 07:04:50;;;;;;;7.33;5.87;;;12.90;90.70;;;;;;5007890;28;20232;-83
2023/04/22 07:07:20;;;;;;;9.80;6.23;;;12.90;90.70;;;;;;4996166;28;20402;-86
2023/04/22 07:09:47;;;;;;;9.43;6.30;;;12.90;91.00;;;;;;5006601;28;20641;-84
2023/04/22 07:12:13;;;;;;;10.33;6.03;;;12.90;90.70;;;;;;5007736;28;20225;-82
2023/04/22 07:14:44;;;;;;;7.03;5.83;;;12.90;91.30;;;;;;5016446;28;20612;-81
2023/04/22 07:17:11;;;;;;;9.80;6.37;;;12.80;91.00;;;;;;4999343;28;20224;-84
2023/04/22 07:19:38;;;;;;;9.70;6.07;;;12.80;91.30;;;;;;4999856;28;20316;-81
2023/04/22 07:22:06;;;;;;;8.13;6.50;;;12.90;91.80;;;;;;5002930;28;20919;-83
2023/04/22 07:24:34;;;;;;;8.53;6.53;;;12.90;91.30;;;;;;5002047;28;20215;-81
2023/04/22 07:27:04;;;;;;;9.03;5.23;;;13.00;91.30;;;;;;5003846;28;20236;-81
2023/04/22 07:29:31;;;;;;;8.83;5.67;;;13.10;91.80;;;;;;5006177;28;20287;-81
2023/04/22 07:31:59;;;;;;;9.60;5.90;;;13.30;92.10;;;;;;5005400;28;20259;-86
2023/04/22 07:34:25;;;;;;;7.77;6.00;;;13.70;91.90;;;;;;5001435;28;22433;-85
2023/04/22 07:36:52;;;;;;;8.87;6.03;;;14.20;92.10;;;;;;5002777;28;20847;-83
2023/04/22 07:39:19;;;;;;;7.17;5.60;;;14.70;91.10;;;;;;5003112;28;20239;-81
2023/04/22 07:41:46;;;;;;;7.23;5.80;;;15.40;90.20;;;;;;5002274;28;20218;-82
2023/04/22 07:44:16;;;;;;;8.95;5.68;;;16.00;90.00;;;;;;5005586;28;20279;-83
2023/04/22 07:46:43;;;;;;;8.15;5.57;;;16.50;85.50;;;;;;4991038;28;20704;-82
2023/04/22 07:49:12;;;;;;;6.17;5.57;;;17.10;85.10;;;;;;5004463;28;20750;-86
2023/04/22 07:51:41;;;;;;;7.43;5.22;;;17.70;85.40;;;;;;5006103;28;20275;-82
2023/04/22 07:54:08;;;;;;;7.95;5.68;;;18.20;86.00;;;;;;5003995;28;20693;-81
2023/04/22 07:56:35;;;;;;;7.22;5.38;;;18.80;79.70;;;;;;5000449;28;20637;-83
2023/04/22 07:59:01;;;;;;;8.90;5.65;;;19.40;81.90;;;;;;5002692;28;20235;-85
2023/04/22 08:01:28;;;;;;;6.15;5.32;;;20.10;80.10;;;;;;4997196;28;20232;-82
2023/04/22 08:03:55;;;;;;;6.53;5.13;;;20.50;74.50;;;;;;5006041;28;20214;-87
2023/04/22 08:06:23;;;;;;;6.63;5.88;;;21.00;74.60;;;;;;5004493;28;20214;-82
2023/04/22 08:08:49;;;;;;;8.20;5.70;;;21.40;70.30;;;;;;5006961;28;20236;-83
2023/04/22 08:11:16;;;;;;;10.95;5.50;;;21.70;72.60;;;;;;5005166;28;20217;-82
2023/04/22 08:13:43;;;;;;;7.70;5.30;;;22.00;69.90;;;;;;5007117;28;20849;-84
2023/04/22 08:16:10;;;;;;;8.27;5.65;;;22.10;69.70;;;;;;5003948;28;20308;-84
2023/04/22 08:18:36;;;;;;;9.35;5.30;;;22.20;67.40;;;;;;5005160;28;20253;-83
2023/04/22 08:21:03;;;;;;;7.78;5.70;;;22.20;67.00;;;;;;5006271;28;20221;-86
2023/04/22 08:23:33;;;;;;;6.45;5.13;;;22.20;66.00;;;;;;4996854;28;20229;-82
2023/04/22 08:26:00;;;;;;;6.63;5.70;;;22.30;66.90;;;;;;5006977;28;20288;-85
2023/04/22 08:28:26;;;;;;;8.57;5.22;;;22.30;67.40;;;;;;5002362;28;20236;-84
2023/04/22 08:30:53;;;;;;;6.47;5.43;;;22.60;68.00;;;;;;5001216;28;20232;-83
2023/04/22 08:33:20;;;;;;;6.78;6.00;;;22.70;64.10;;;;;;4994996;28;20228;-86
2023/04/22 08:35:47;;;;;;;7.38;6.07;;;22.70;64.00;;;;;;5003514;28;20285;-84
2023/04/22 08:38:14;;;;;;;8.60;5.82;;;22.70;63.40;;;;;;5001800;28;20232;-83
2023/04/22 08:40:42;;;;;;;8.30;5.68;;;22.50;64.90;;;;;;5002650;28;20334;-85
2023/04/22 08:43:09;;;;;;;6.53;5.78;;;22.40;65.20;;;;;;5002365;28;20257;-82
2023/04/22 08:45:41;;;;;;;7.03;5.60;;;22.20;63.80;;;;;;5001275;28;20592;-82
2023/04/22 08:48:10;;;;;;;8.77;5.68;;;22.30;66.80;;;;;;5014921;28;20306;-86
2023/04/22 08:50:42;;;;;;;7.47;5.40;;;22.40;64.70;;;;;;5004679;28;20222;-86
2023/04/22 08:53:09;;;;;;;8.40;5.50;;;22.30;63.20;;;;;;4998561;28;20513;-86
2023/04/22 08:55:36;;;;;;;7.63;4.97;;;22.30;65.00;;;;;;5016077;28;20591;-82
2023/04/22 08:58:05;;;;;;;8.63;5.80;;;22.40;65.60;;;;;;5006187;28;20219;-84
2023/04/22 09:00:35;;;;;;;7.93;5.70;;;22.50;63.10;;;;;;5001876;28;20224;-83
2023/04/22 09:03:05;;;;;;;6.30;5.53;;;22.50;64.00;;;;;;5003525;28;20231;-83
2023/04/22 09:05:35;;;;;;;6.40;5.00;;;22.60;64.50;;;;;;5000360;28;20228;-82
2023/04/22 09:08:02;;;;;;;8.25;5.75;;;22.60;63.10;;;;;;5004564;28;20253;-84
2023/04/22 09:10:30;;;;;;;7.13;5.25;;;22.70;64.10;;;;;;5005032;28;20221;-83
2023/04/22 09:12:58;;;;;;;5.95;5.13;;;22.70;63.30;;;;;;5005747;28;20267;-82
2023/04/22 09:15:26;;;;;;;6.68;5.50;;;22.50;64.10;;;;;;5005509;28;20229;-83
2023/04/22 09:17:53;;;;;;;7.13;5.13;;;22.50;64.90;;;;;;5006389;28;20666;-83
2023/04/22 09:20:28;;;;;;;9.88;6.03;;;22.60;64.20;;;;;;5006802;28;21786;-85
2023/04/22 09:22:56;;;;;;;7.40;5.47;;;22.70;65.30;;;;;;4996391;28;20238;-82
2023/04/22 09:25:25;;;;;;;8.43;5.60;;;22.90;64.90;;;;;;5003850;28;20231;-83
2023/04/22 09:27:53;;;;;;;6.15;4.95;;;23.20;65.40;;;;;;4997423;28;20253;-84
2023/04/22 09:30:27;;;;;;;6.88;4.95;;;23.50;63.90;;;;;;4999077;28;20229;-82
2023/04/22 09:32:56;;;;;;;5.90;5.05;;;23.80;62.50;;;;;;5005118;28;20229;-81
2023/04/22 09:35:28;;;;;;;6.32;4.80;;;24.20;62.90;;;;;;5004396;28;20232;-82
2023/04/22 09:37:55;;;;;;;5.70;5.13;;;24.40;60.40;;;;;;5004709;28;20218;-82
2023/04/22 09:40:22;;;;;;;5.78;4.90;;;24.70;60.80;;;;;;5005364;28;20230;-84
2023/04/22 09:42:50;;;;;;;6.38;4.85;;;24.80;59.80;;;;;;5000839;28;21002;-83
2023/04/22 09:45:28;;;;;;;6.15;5.18;;;25.10;61.80;;;;;;4993926;28;20222;-82
2023/04/22 09:47:57;;;;;;;7.25;5.05;;;25.30;59.90;;;;;;5002294;28;20217;-82
2023/04/22 09:50:25;;;;;;;6.47;4.80;;;25.70;60.90;;;;;;5003150;28;20295;-82
2023/04/22 09:52:56;;;;;;;7.82;5.22;;;26.00;59.50;;;;;;5003693;28;20334;-80
2023/04/22 09:55:25;;;;;;;6.18;5.03;;;26.20;57.10;;;;;;4998544;28;20225;-84
2023/04/22 09:57:53;;;;;;;5.30;4.80;;;26.50;57.50;;;;;;5000849;28;20280;-82
2023/04/22 10:00:20;;;;;;;6.13;4.50;;;26.40;56.50;;;;;;4998471;28;20656;-81
2023/04/22 10:02:46;;;;;;;5.70;5.00;;;26.50;57.80;;;;;;4999110;28;20692;-82
2023/04/22 10:05:15;;;;;;;5.88;4.55;;;26.50;55.90;;;;;;5004019;28;20323;-84
2023/04/22 10:07:42;;;;;;;7.65;4.53;;;26.40;55.40;;;;;;5004842;28;20224;-82
2023/04/22 10:10:09;;;;;;;4.88;4.40;;;26.30;55.60;;;;;;5007537;28;20228;-82
2023/04/22 10:12:36;;;;;;;8.63;5.05;;;26.30;55.30;;;;;;5005318;28;20615;-82
2023/04/22 10:15:03;;;;;;;6.57;4.75;;;26.20;55.80;;;;;;4997790;28;20233;-82
2023/04/22 10:17:33;;;;;;;5.55;4.15;;;26.10;54.60;;;;;;5003963;28;20240;-83
2023/04/22 10:20:02;;;;;;;5.80;5.05;;;26.00;55.80;;;;;;5003019;28;20237;-82
2023/04/22 10:22:31;;;;;;;7.05;4.90;;;26.10;55.50;;;;;;5001690;28;20229;-82
2023/04/22 10:24:58;;;;;;;6.85;4.53;;;26.10;55.70;;;;;;5002955;28;20230;-82
2023/04/22 10:27:24;;;;;;;5.13;4.10;;;26.20;56.30;;;;;;5004307;28;20257;-82
2023/04/22 10:29:51;;;;;;;5.55;4.53;;;26.40;56.50;;;;;;5007755;28;20232;-82
2023/04/22 10:32:25;;;;;;;6.70;4.15;;;26.50;56.90;;;;;;5006267;28;20231;-82
2023/04/22 10:35:11;;;;;;;6.32;4.50;;;26.80;56.20;;;;;;5004255;28;20221;-81
2023/04/22 10:37:44;;;;;;;4.72;3.40;;;27.10;56.50;;;;;;5009216;28;20248;-82
2023/04/22 10:40:15;;;;;;;5.40;3.60;;;27.40;55.00;;;;;;5002336;28;20225;-82
2023/04/22 10:42:42;;;;;;;4.93;3.72;;;27.70;55.30;;;;;;5010204;28;20225;-82
2023/04/22 10:45:14;;;;;;;5.03;3.65;;;27.70;53.40;;;;;;5002495;28;20711;-81
2023/04/22 10:47:41;;;;;;;5.90;4.10;;;27.90;54.20;;;;;;5008052;28;20225;-81
2023/04/22 10:50:21;;;;;;;4.80;3.95;;;28.00;54.40;;;;;;5004538;28;20299;-81
2023/04/22 10:52:55;;;;;;;7.60;4.13;;;28.00;50.80;;;;;;5003697;28;20989;-87
2023/04/22 10:55:22;;;;;;;4.05;3.65;;;28.00;53.20;;;;;;5009605;28;20217;-80
2023/04/22 10:57:50;;;;;;;7.38;4.07;;;27.90;51.50;;;;;;5001765;28;20299;-81
2023/04/22 11:00:29;;;;;;;4.70;3.35;;;27.80;52.10;;;;;;5000622;28;20744;-80
2023/04/22 11:03:09;;;;;;;3.78;2.78;;;27.80;52.20;;;;;;5004066;28;20934;-80
2023/04/22 11:05:37;;;;;;;3.28;2.70;;;27.70;50.70;;;;;;4999416;28;20228;-80
2023/04/22 11:08:07;;;;;;;4.65;3.13;;;27.70;52.80;;;;;;5002215;28;20253;-77
2023/04/22 11:10:43;;;;;;;4.85;2.90;;;27.70;51.80;;;;;;4998056;28;20328;-77
2023/04/22 11:13:12;;;;;;;4.68;3.42;;;27.60;52.20;;;;;;4996147;28;20890;-76
2023/04/22 11:15:41;;;;;;;5.72;3.47;;;27.50;50.80;;;;;;5000523;28;20234;-77
2023/04/22 11:18:10;;;;;;;3.90;3.47;;;27.30;50.20;;;;;;4999377;28;20229;-76
2023/04/22 11:20:37;;;;;;;5.53;3.25;;;27.10;51.00;;;;;;4992330;28;20226;-76
2023/04/22 11:23:05;;;;;;;4.88;3.42;;;26.90;51.50;;;;;;4994393;28;20244;-78
2023/04/22 11:25:32;;;;;;;4.88;3.28;;;26.70;51.70;;;;;;4993096;28;20236;-76
2023/04/22 11:27:59;;;;;;;5.88;3.13;;;26.70;52.50;;;;;;4994046;28;20225;-77
2023/04/22 11:30:27;;;;;;;6.22;3.83;;;26.80;53.40;;;;;;4999073;28;20225;-76
2023/04/22 11:32:55;;;;;;;4.65;3.58;;;26.90;53.10;;;;;;4994687;28;20846;-76
2023/04/22 11:35:24;;;;;;;3.60;3.30;;;26.90;53.40;;;;;;4998339;28;20252;-76
2023/04/22 11:37:52;;;;;;;4.00;3.50;;;27.00;52.60;;;;;;4993111;28;20245;-77
2023/04/22 11:40:24;;;;;;;5.28;3.15;;;27.00;51.70;;;;;;4997583;28;20232;-77
2023/04/22 11:42:51;;;;;;;4.72;3.60;;;26.90;52.10;;;;;;4995977;28;20218;-76
2023/04/22 11:45:18;;;;;;;4.78;3.28;;;26.80;50.40;;;;;;4999443;28;20622;-77
2023/04/22 11:47:45;;;;;;;4.35;3.63;;;26.60;51.90;;;;;;4999823;28;20219;-77
2023/04/22 11:50:14;;;;;;;6.07;3.78;;;26.60;52.20;;;;;;4997351;28;20229;-78
2023/04/22 11:52:59;;;;;;;4.68;3.40;;;26.50;52.30;;;;;;4998561;28;20261;-78
2023/04/22 11:55:29;;;;;;;3.53;3.22;;;26.40;51.50;;;;;;4992544;28;20288;-77
2023/04/22 11:57:58;;;;;;;3.92;3.22;;;26.30;52.40;;;;;;4999680;28;20313;-77
2023/04/22 12:00:28;;;;;;;3.60;3.30;;;26.40;52.70;;;;;;4997254;28;20240;-77
2023/04/22 12:02:57;;;;;;;3.58;3.28;;;26.40;52.20;;;;;;5000429;28;20224;-77
2023/04/22 12:05:35;;;;;;;5.07;3.15;;;26.50;51.60;;;;;;4994359;28;20233;-77
2023/04/22 12:08:02;;;;;;;5.75;3.42;;;26.50;51.80;;;;;;5001403;28;20216;-77
2023/04/22 12:10:30;;;;;;;3.83;3.28;;;26.40;52.50;;;;;;5002094;28;20241;-78
2023/04/22 12:12:57;;;;;;;4.53;3.45;;;26.40;51.80;;;;;;5003015;28;20368;-78
2023/04/22 12:15:24;;;;;;;3.28;2.97;;;26.40;51.80;;;;;;5000291;28;20241;-77
2023/04/22 12:17:51;;;;;;;3.30;2.97;;;26.40;52.70;;;;;;5003055;28;20221;-78
2023/04/22 12:20:18;;;;;;;5.50;3.33;;;26.30;51.10;;;;;;5002901;28;20228;-76
2023/04/22 12:22:45;;;;;;;5.03;3.22;;;26.30;51.80;;;;;;4998072;28;20305;-78
2023/04/22 12:25:17;;;;;;;4.03;3.42;;;26.20;51.30;;;;;;4999183;28;20287;-77
2023/04/22 12:27:45;;;;;;;6.90;3.20;;;26.00;51.50;;;;;;4997266;28;20214;-77
2023/04/22 12:30:13;;;;;;;4.45;3.83;;;25.90;52.00;;;;;;5000512;28;20312;-77
2023/04/22 12:32:40;;;;;;;5.18;3.38;;;25.60;51.10;;;;;;5000129;28;20217;-77
2023/04/22 12:35:08;;;;;;;5.20;3.63;;;25.50;51.50;;;;;;4994717;28;20225;-77
2023/04/22 12:37:35;;;;;;;5.05;3.70;;;25.30;52.30;;;;;;4995166;28;20222;-76
2023/04/22 12:40:03;;;;;;;4.95;3.53;;;25.20;52.60;;;;;;4996229;28;20229;-77
2023/04/22 12:42:30;;;;;;;6.20;3.83;;;25.10;52.50;;;;;;5000464;28;20229;-77
2023/04/22 12:44:58;;;;;;;3.60;2.95;;;25.10;52.90;;;;;;4998770;28;20245;-77
2023/04/22 12:47:24;;;;;;;3.90;3.40;;;25.00;53.10;;;;;;4995962;28;20229;-77
2023/04/22 12:49:51;;;;;;;5.60;3.20;;;25.00;54.00;;;;;;4997717;28;20361;-77
2023/04/22 12:52:18;;;;;;;3.60;3.15;;;25.00;53.20;;;;;;5001586;28;20221;-77
2023/04/22 12:54:45;;;;;;;8.20;3.63;;;25.10;54.00;;;;;;5000864;28;20226;-75
2023/04/22 12:57:11;;;;;;;5.00;3.30;;;25.10;53.50;;;;;;4996918;28;20221;-77